Time;durP1;ratioP1;P1;durP2;ratioP2;P2;SDS_P1;SDS_P2;PMS_P1;PMS_P2;Temp;Humidity;BMP_temperature;BMP_pressure;BME280_temperature;BME280_humidity;BME280_pressure;Samples;Min_cycle;Max_cycle;Signal;HPM_P1;HPM_P2
2022/10/25 00:02:22;;;;;;;1.20;1.10;;;14.30;97.60;;;14.69;66.46;98833.25;4944668;28;114968;-78
2022/10/25 00:04:49;;;;;;;3.50;1.73;;;14.30;97.70;;;14.67;66.57;98830.84;4953797;28;124425;-77
2022/10/25 00:07:16;;;;;;;1.93;1.20;;;14.30;97.70;;;14.66;66.72;98833.94;4960591;28;124084;-79
2022/10/25 00:09:42;;;;;;;7.00;1.23;;;14.30;97.70;;;14.64;67.01;98831.50;4965466;28;114175;-78
2022/10/25 00:12:09;;;;;;;1.90;1.43;;;14.30;97.80;;;14.65;66.69;98833.13;4959580;28;113961;-78
2022/10/25 00:14:35;;;;;;;1.87;1.20;;;14.30;97.80;;;14.66;66.76;98831.97;4955271;28;124054;-79
2022/10/25 00:17:03;;;;;;;2.50;1.10;;;14.30;97.80;;;14.67;66.71;98846.69;4965979;28;123957;-77
2022/10/25 00:19:29;;;;;;;6.53;1.80;;;14.30;97.90;;;14.67;66.92;98832.78;4959469;28;114245;-79
2022/10/25 00:21:56;;;;;;;2.90;1.47;;;14.30;97.90;;;14.65;66.91;98844.25;4968184;28;113735;-80
2022/10/25 00:24:22;;;;;;;3.33;1.50;;;14.30;97.90;;;14.64;67.11;98833.47;4969958;28;123808;-81
2022/10/25 00:26:49;;;;;;;3.33;1.50;;;14.20;97.90;;;14.64;67.08;98836.25;4965965;28;122778;-76
2022/10/25 00:29:16;;;;;;;5.37;1.67;;;14.20;97.90;;;14.63;66.97;98845.75;4941374;28;112438;-79
2022/10/25 00:31:44;;;;;;;1.37;1.17;;;14.20;97.90;;;14.62;67.08;98835.78;4971443;28;114561;-79
2022/10/25 00:34:10;;;;;;;2.53;1.40;;;14.20;98.30;;;14.60;66.67;98843.66;4966677;28;123216;-79
2022/10/25 00:36:39;;;;;;;1.93;1.33;;;14.70;98.20;;;14.61;67.19;98834.13;4962533;28;123875;-78
2022/10/25 00:39:07;;;;;;;1.53;1.30;;;14.20;98.00;;;14.58;67.17;98833.66;4961156;28;114419;-78
2022/10/25 00:41:34;;;;;;;6.70;1.90;;;14.20;98.00;;;14.57;67.09;98828.44;4957587;28;113715;-77
2022/10/25 00:44:35;;;;;;;1.77;1.10;;;14.20;98.00;;;14.53;66.95;98828.31;4966533;28;124175;-80
2022/10/25 00:47:19;;;;;;;3.30;1.30;;;14.20;98.00;;;14.53;67.10;98827.47;4981255;28;123692;-79
2022/10/25 00:50:04;;;;;;;2.17;1.40;;;14.10;98.00;;;14.51;67.12;98833.38;4975041;28;115619;-81
2022/10/25 00:52:35;;;;;;;2.50;1.30;;;14.10;98.00;;;14.50;67.30;98837.28;4965089;28;113259;-82
2022/10/25 00:55:04;;;;;;;1.90;1.40;;;14.20;98.10;;;14.50;67.26;98837.28;4975154;28;123375;-79
2022/10/25 00:57:41;;;;;;;1.83;1.27;;;14.10;98.10;;;14.53;67.35;98841.38;4969331;28;123183;-78
2022/10/25 01:00:08;;;;;;;2.00;1.23;;;14.10;98.10;;;14.52;67.27;98840.56;4957228;28;114244;-78
2022/10/25 01:02:35;;;;;;;1.90;1.23;;;14.10;98.10;;;14.53;67.31;98836.66;4968897;28;116269;-77
2022/10/25 01:05:02;;;;;;;3.10;1.50;;;14.10;98.10;;;14.54;67.33;98838.28;4968756;28;123184;-78
2022/10/25 01:07:28;;;;;;;3.10;1.50;;;14.10;98.20;;;14.55;67.26;98831.56;4961011;28;124006;-78
2022/10/25 01:09:56;;;;;;;2.30;1.83;;;14.20;98.20;;;14.56;67.28;98830.41;4963561;28;114301;-78
2022/10/25 01:12:23;;;;;;;3.40;1.53;;;14.20;98.20;;;14.58;67.37;98843.97;4959801;28;113987;-77
2022/10/25 01:14:51;;;;;;;1.63;1.30;;;14.20;98.20;;;14.58;67.28;98839.22;4962867;28;123043;-77
2022/10/25 01:17:50;;;;;;;3.30;1.20;;;14.20;98.20;;;14.56;67.31;98824.84;4961930;28;123896;-77
2022/10/25 01:20:47;;;;;;;3.20;1.37;;;14.20;98.30;;;14.57;67.40;98831.22;4946028;28;114270;-77
2022/10/25 01:23:54;;;;;;;2.63;1.60;;;14.20;98.30;;;14.56;67.30;98827.63;4960897;28;113997;-77
2022/10/25 01:26:59;;;;;;;7.23;1.20;;;14.20;98.20;;;14.56;67.22;98829.59;4963669;28;124004;-77
2022/10/25 01:29:47;;;;;;;1.60;1.30;;;14.20;98.20;;;14.56;67.24;98826.81;4953832;28;124490;-77
2022/10/25 01:32:40;;;;;;;2.63;1.17;;;14.20;98.20;;;14.56;67.52;98818.47;4965277;28;115426;-77
2022/10/25 01:35:27;;;;;;;3.00;1.10;;;14.20;98.30;;;14.57;67.38;98826.47;4966972;28;113902;-78
2022/10/25 01:38:11;;;;;;;4.50;1.40;;;14.20;98.30;;;14.59;67.32;98823.38;4957968;28;124062;-77
2022/10/25 01:41:14;;;;;;;1.90;1.27;;;14.20;98.30;;;14.61;67.28;98820.22;4958603;28;123017;-76
2022/10/25 01:44:38;;;;;;;2.57;1.53;;;14.20;98.30;;;14.63;67.30;98824.31;4956539;28;115258;-77
2022/10/25 01:47:17;;;;;;;1.70;1.50;;;14.20;98.30;;;14.66;67.12;98822.81;4952377;28;115152;-77
2022/10/25 01:49:56;;;;;;;3.17;1.17;;;14.20;98.30;;;14.67;66.74;98830.84;4947243;28;124474;-79
2022/10/25 01:52:23;;;;;;;1.97;1.30;;;14.20;98.30;;;14.68;67.01;98832.44;4957454;28;123767;-80
2022/10/25 01:54:51;;;;;;;5.07;1.40;;;14.20;98.30;;;14.68;67.29;98832.44;4956026;28;112875;-78
2022/10/25 01:57:29;;;;;;;2.40;1.37;;;14.30;98.30;;;14.66;67.21;98833.94;4960437;28;113785;-79
2022/10/25 02:00:19;;;;;;;3.17;1.50;;;14.20;98.20;;;14.64;67.13;98831.50;4966408;28;125641;-77
2022/10/25 02:03:24;;;;;;;10.50;1.93;;;14.20;98.20;;;14.64;67.16;98842.63;4958341;28;124120;-79
2022/10/25 02:05:59;;;;;;;2.93;1.50;;;14.20;98.20;;;14.65;67.03;98843.44;4970253;28;114137;-78
2022/10/25 02:12:15;;;;;;;3.83;1.40;;;14.20;98.20;;;14.61;66.96;98848.03;4968543;28;124715;-80
2022/10/25 02:15:15;;;;;;;3.07;1.80;;;14.20;98.20;;;14.58;67.13;98838.41;4956822;28;123180;-77
2022/10/25 02:17:49;;;;;;;3.03;1.53;;;14.20;98.20;;;14.58;67.15;98839.22;4971955;28;114029;-82
2022/10/25 02:20:18;;;;;;;2.27;1.30;;;14.20;98.20;;;14.58;67.12;98843.97;4973534;28;116046;-80
2022/10/25 02:22:46;;;;;;;2.40;1.50;;;14.20;98.30;;;14.58;67.34;98839.22;4979128;28;124374;-83
2022/10/25 02:25:15;;;;;;;12.50;2.03;;;14.20;98.30;;;14.59;67.24;98834.50;4967811;28;124722;-83
2022/10/25 02:27:43;;;;;;;4.70;1.50;;;14.20;98.30;;;14.60;67.16;98836.09;4964744;28;114569;-82
2022/10/25 02:30:10;;;;;;;2.50;1.50;;;14.20;98.30;;;14.63;67.21;98834.63;4977324;28;113946;-81
2022/10/25 02:32:38;;;;;;;2.10;1.47;;;14.20;98.60;;;14.64;67.03;98842.63;4969840;28;124038;-78
2022/10/25 02:35:11;;;;;;;1.70;1.40;;;14.20;98.30;;;14.65;67.22;98841.47;4963086;28;123688;-82
2022/10/25 02:37:37;;;;;;;1.53;1.03;;;14.20;98.30;;;14.65;66.97;98840.66;4955470;28;115747;-83
2022/10/25 02:40:05;;;;;;;6.00;1.67;;;14.20;98.30;;;14.65;66.97;98835.91;4954807;28;114249;-81
2022/10/25 02:46:17;;;;;;;3.20;1.40;;;14.20;98.20;;;14.60;67.09;98829.75;4964196;28;123875;-83
2022/10/25 02:48:46;;;;;;;1.80;1.20;;;14.20;98.20;;;14.57;67.13;98820.09;4970330;28;114279;-80
2022/10/25 02:51:14;;;;;;;5.37;1.50;;;14.20;98.20;;;14.58;67.28;98830.88;4952364;28;113571;-83
2022/10/25 02:53:41;;;;;;;2.80;1.47;;;14.20;98.20;;;14.57;67.05;98820.91;4956358;28;123287;-83
2022/10/25 02:56:15;;;;;;;2.00;1.53;;;14.20;98.30;;;14.56;67.09;98816.53;4964299;28;124210;-79
2022/10/25 02:58:43;;;;;;;4.83;1.60;;;14.20;98.30;;;14.57;67.09;98820.91;4961637;28;114307;-78
2022/10/25 03:01:11;;;;;;;2.07;1.40;;;14.20;98.30;;;14.60;67.19;98816.66;4970024;28;113932;-79
2022/10/25 03:03:38;;;;;;;2.83;1.80;;;14.20;98.30;;;14.58;67.15;98819.75;4953379;28;122849;-79
2022/10/25 03:06:06;;;;;;;2.90;1.20;;;14.20;98.30;;;14.58;67.08;98822.53;4967184;28;123880;-78
2022/10/25 03:08:33;;;;;;;6.10;1.50;;;14.20;98.30;;;14.58;67.12;98816.16;4949537;28;113104;-77
2022/10/25 03:11:00;;;;;;;2.50;1.70;;;14.20;98.30;;;14.57;67.14;98817.31;4963168;28;114043;-78
2022/10/25 03:13:27;;;;;;;5.57;1.77;;;14.10;98.20;;;14.57;67.04;98812.56;4951900;28;124187;-80
2022/10/25 03:15:53;;;;;;;3.30;1.50;;;14.10;98.20;;;14.57;67.06;98820.09;4955715;28;124215;-78
2022/10/25 03:18:21;;;;;;;2.60;1.73;;;14.20;98.30;;;14.56;67.36;98819.31;4956982;28;114228;-78
2022/10/25 03:20:48;;;;;;;5.60;1.47;;;14.10;98.30;;;14.56;67.09;98819.31;4963451;28;114906;-80
2022/10/25 03:23:15;;;;;;;3.20;1.50;;;14.10;98.30;;;14.58;67.02;98830.88;4967751;28;125799;-78
2022/10/25 03:25:42;;;;;;;4.10;1.30;;;14.10;98.30;;;14.58;67.21;98839.22;4964244;28;123031;-78
2022/10/25 03:28:11;;;;;;;2.87;1.53;;;14.20;98.30;;;14.58;67.12;98839.22;4944940;28;115801;-78
2022/10/25 03:30:40;;;;;;;3.03;1.30;;;14.10;98.30;;;14.58;67.23;98844.78;4962460;28;114971;-78
2022/10/25 03:33:07;;;;;;;5.97;1.80;;;14.20;98.60;;;14.58;67.19;98838.41;4960767;28;124347;-76
2022/10/25 03:35:34;;;;;;;3.17;1.70;;;14.10;98.30;;;14.58;67.34;98839.22;4962850;28;124898;-77
2022/10/25 03:38:00;;;;;;;2.70;1.67;;;14.30;98.40;;;14.58;67.20;98833.66;4968291;28;114420;-77
2022/10/25 03:40:27;;;;;;;4.33;1.70;;;14.10;98.40;;;14.58;67.33;98833.66;4971937;28;113906;-77
2022/10/25 03:42:53;;;;;;;4.97;1.97;;;14.10;98.40;;;14.60;67.16;98841.66;4959947;28;123862;-79
2022/10/25 03:45:20;;;;;;;3.37;1.60;;;14.20;98.40;;;14.60;67.10;98843.66;4957647;28;122682;-78
2022/10/25 03:47:47;;;;;;;2.97;1.83;;;14.10;98.30;;;14.60;67.21;98836.09;4951077;28;113654;-79
2022/10/25 03:50:13;;;;;;;2.43;2.00;;;14.20;98.40;;;14.58;67.26;98838.41;4956985;28;114096;-77
2022/10/25 03:52:41;;;;;;;2.17;1.50;;;14.20;98.40;;;14.56;67.39;98846.25;4968095;28;123033;-79
2022/10/25 03:55:08;;;;;;;2.43;1.57;;;14.20;98.40;;;14.57;67.21;98848.72;4969714;28;123691;-79
2022/10/25 03:57:35;;;;;;;7.43;1.90;;;14.10;98.40;;;14.56;67.21;98844.31;4967721;28;113283;-80
2022/10/25 04:00:03;;;;;;;3.40;1.80;;;14.10;98.40;;;14.56;67.35;98847.09;4967516;28;113890;-78
2022/10/25 04:02:30;;;;;;;2.80;1.90;;;14.10;98.40;;;14.56;67.39;98849.03;4943847;28;123071;-77
2022/10/25 04:04:57;;;;;;;2.10;1.63;;;13.00;97.90;;;14.56;67.51;98851.81;4955961;28;123478;-77
2022/10/25 04:07:23;;;;;;;2.93;1.60;;;14.20;98.40;;;14.55;67.43;98847.44;4949015;28;114325;-77
2022/10/25 04:09:50;;;;;;;3.33;1.70;;;14.20;98.40;;;14.53;67.36;98847.78;4952577;28;114022;-78
2022/10/25 04:12:16;;;;;;;2.60;1.50;;;14.10;98.40;;;14.51;67.65;98850.06;4948763;28;124379;-77
2022/10/25 04:14:43;;;;;;;2.90;1.60;;;14.10;98.40;;;14.50;67.57;98853.16;4951713;28;124025;-77
2022/10/25 04:17:09;;;;;;;8.60;2.40;;;14.40;98.60;;;14.48;67.50;98845.16;4954442;28;114587;-77
2022/10/25 04:19:36;;;;;;;2.90;1.63;;;14.50;98.70;;;14.49;67.66;98852.34;4968290;28;113782;-78
2022/10/25 04:22:03;;;;;;;5.60;2.03;;;14.10;98.50;;;14.49;67.71;98851.53;4954200;28;124860;-77
2022/10/25 04:24:29;;;;;;;3.90;1.70;;;14.10;98.50;;;14.50;67.49;98853.97;4948400;28;123972;-80
2022/10/25 04:26:56;;;;;;;3.83;1.97;;;14.20;98.60;;;14.51;67.82;98847.28;4954100;28;114409;-79
2022/10/25 04:29:23;;;;;;;9.70;2.17;;;14.10;98.60;;;14.51;67.67;98855.59;4948757;28;114486;-78
2022/10/25 04:31:49;;;;;;;4.40;1.80;;;14.10;98.60;;;14.52;67.65;98848.06;4946662;28;123950;-77
2022/10/25 04:34:16;;;;;;;4.70;1.80;;;14.10;98.60;;;14.52;67.76;98845.28;4948311;28;124474;-79
2022/10/25 04:36:42;;;;;;;5.40;1.80;;;14.10;98.60;;;14.52;67.66;98846.13;4955679;28;114140;-78
2022/10/25 04:39:09;;;;;;;2.00;1.80;;;14.10;98.60;;;14.52;67.59;98853.63;4950435;28;114056;-77
2022/10/25 04:41:35;;;;;;;3.33;1.80;;;14.10;98.60;;;14.52;67.61;98862.81;4957211;28;124131;-81
2022/10/25 04:44:02;;;;;;;3.00;1.77;;;14.10;98.60;;;14.52;67.60;98854.47;4951089;28;123569;-78
2022/10/25 04:46:28;;;;;;;3.83;2.20;;;14.10;98.60;;;14.54;67.62;98865.28;4967991;28;114197;-77
2022/10/25 04:48:56;;;;;;;4.17;1.80;;;14.10;98.70;;;14.53;67.66;98856.13;4960306;28;113942;-79
2022/10/25 04:51:23;;;;;;;4.00;2.07;;;14.40;98.80;;;14.54;67.48;98856.94;4958451;28;123796;-77
2022/10/25 04:53:53;;;;;;;5.97;1.80;;;14.10;98.60;;;14.55;67.66;98853.00;4968187;28;124982;-79
2022/10/25 04:56:20;;;;;;;5.87;1.60;;;14.10;98.70;;;14.55;67.70;98861.34;4964194;28;114198;-77
2022/10/25 04:58:46;;;;;;;3.33;1.50;;;14.10;98.70;;;14.54;67.63;98863.31;4965523;28;113983;-79
2022/10/25 05:01:16;;;;;;;3.50;1.70;;;14.10;98.60;;;14.53;67.48;98853.34;4956860;28;124121;-76
2022/10/25 05:03:43;;;;;;;6.13;1.60;;;14.10;98.60;;;14.52;67.68;98856.41;4959651;28;123873;-78
2022/10/25 05:06:17;;;;;;;3.80;1.80;;;14.20;98.60;;;14.52;67.57;98853.63;4950200;28;116140;-77
2022/10/25 05:08:46;;;;;;;3.07;1.90;;;14.10;98.60;;;14.52;67.77;98853.63;4964590;28;113915;-79
2022/10/25 05:11:16;;;;;;;7.87;1.93;;;14.10;98.60;;;14.53;67.60;98867.25;4947739;28;124090;-79
2022/10/25 05:13:43;;;;;;;6.77;1.97;;;14.10;98.60;;;14.54;67.68;98865.28;4953896;28;123802;-80
2022/10/25 05:16:20;;;;;;;2.23;2.03;;;14.10;98.60;;;14.56;67.63;98862.94;4955433;28;113764;-79
2022/10/25 05:18:48;;;;;;;5.33;1.60;;;14.10;98.60;;;14.54;67.74;98870.84;4953657;28;113978;-80
2022/10/25 05:21:16;;;;;;;1.70;1.50;;;14.10;98.60;;;14.53;67.60;98870.03;4946928;28;124332;-79
2022/10/25 05:23:44;;;;;;;4.20;1.90;;;14.10;98.60;;;14.53;67.64;98875.59;4949367;28;123758;-81
2022/10/25 05:26:18;;;;;;;2.80;1.80;;;14.10;98.60;;;14.53;67.72;98869.19;4949833;28;115409;-79
2022/10/25 05:28:47;;;;;;;6.07;2.80;;;14.10;98.60;;;14.53;67.55;98877.53;4960169;28;112734;-78
2022/10/25 05:31:26;;;;;;;2.87;1.77;;;14.10;98.60;;;14.53;67.45;98871.97;4937559;28;123962;-80
2022/10/25 05:33:57;;;;;;;3.07;1.83;;;14.10;98.60;;;14.53;67.66;98877.53;4966694;28;123919;-80
2022/10/25 05:36:24;;;;;;;3.00;1.53;;;14.20;98.70;;;14.53;67.79;98875.59;4964276;28;114319;-80
2022/10/25 05:38:51;;;;;;;4.10;1.90;;;14.10;98.60;;;14.55;67.63;98881.59;4964265;28;113894;-83
2022/10/25 05:41:18;;;;;;;6.23;2.30;;;14.10;98.60;;;14.57;67.58;98875.72;4949862;28;123172;-84
2022/10/25 05:43:45;;;;;;;3.30;1.90;;;14.20;98.60;;;14.59;67.49;98878.97;4955969;28;123819;-80
2022/10/25 05:46:20;;;;;;;2.60;1.50;;;14.30;98.60;;;14.63;67.50;98879.13;4970979;28;114344;-81
2022/10/25 05:48:49;;;;;;;8.43;2.37;;;14.20;98.60;;;14.62;67.30;98883.06;4957778;28;113260;-80
2022/10/25 05:51:30;;;;;;;5.07;2.50;;;14.40;98.70;;;14.63;67.40;98884.66;4968502;28;124518;-81
2022/10/25 05:54:12;;;;;;;2.53;1.93;;;14.20;98.50;;;14.63;67.21;98884.66;4957569;28;123515;-79
2022/10/25 05:56:41;;;;;;;2.70;1.77;;;14.20;98.50;;;14.63;67.52;98882.69;4961989;28;115301;-83
2022/10/25 05:59:13;;;;;;;9.20;2.00;;;14.30;98.50;;;14.64;67.40;98889.91;4962414;28;114929;-80
2022/10/25 06:01:45;;;;;;;2.90;2.03;;;14.20;98.50;;;14.64;67.16;98891.84;4963733;28;124075;-80
2022/10/25 06:04:12;;;;;;;3.60;1.60;;;14.20;98.40;;;14.65;67.12;98890.72;4940895;28;122700;-83
2022/10/25 06:06:40;;;;;;;6.20;1.87;;;14.20;98.40;;;14.64;67.09;98889.06;4952807;28;114188;-79
2022/10/25 06:09:08;;;;;;;3.27;1.90;;;14.20;98.40;;;14.62;67.08;98895.00;4943914;28;113304;-82
2022/10/25 06:11:36;;;;;;;1.97;1.60;;;14.20;98.30;;;14.62;67.11;98891.41;4954487;28;124101;-81
2022/10/25 06:14:04;;;;;;;6.90;2.03;;;14.20;98.40;;;14.63;67.03;98895.78;4966593;28;123479;-78
2022/10/25 06:16:30;;;;;;;9.80;2.50;;;14.20;98.30;;;14.64;67.09;98900.19;4963836;28;116006;-79
2022/10/25 06:18:57;;;;;;;6.30;1.93;;;14.30;98.40;;;14.64;67.06;98895.47;4954943;28;114395;-78
2022/10/25 06:21:27;;;;;;;2.60;1.70;;;14.20;98.40;;;14.67;67.04;98896.72;4957573;28;124096;-78
2022/10/25 06:23:55;;;;;;;7.77;1.87;;;14.20;98.60;;;14.69;66.89;98900.00;4950866;28;124195;-78
2022/10/25 06:26:25;;;;;;;6.27;1.77;;;14.20;98.30;;;14.73;67.03;98903.75;4951631;28;114427;-78
2022/10/25 06:28:55;;;;;;;1.87;1.53;;;14.30;98.40;;;14.80;66.93;98907.63;4951081;28;113942;-79
2022/10/25 06:31:23;;;;;;;2.13;1.70;;;14.30;98.40;;;14.89;66.42;98931.78;4949031;28;123838;-78
2022/10/25 06:33:50;;;;;;;2.73;2.10;;;14.40;98.40;;;14.96;66.45;98930.09;4953448;28;124034;-78
2022/10/25 06:36:19;;;;;;;5.23;1.80;;;14.40;98.40;;;15.04;66.46;98928.38;4960114;28;114851;-80
2022/10/25 06:38:47;;;;;;;3.53;1.60;;;14.50;98.40;;;15.15;66.29;98937.13;4957522;28;114233;-79
2022/10/25 06:41:20;;;;;;;2.20;1.50;;;14.60;98.20;;;15.20;66.00;98939.72;4951996;28;123902;-79
2022/10/25 06:43:47;;;;;;;5.17;1.70;;;14.70;98.10;;;15.25;65.84;98940.31;4952315;28;124838;-78
2022/10/25 06:46:23;;;;;;;4.50;1.80;;;14.80;98.00;;;15.30;65.72;98939.31;4952150;28;115211;-80
2022/10/25 06:48:51;;;;;;;3.60;1.97;;;14.80;97.90;;;15.35;65.47;98941.09;4965666;28;116011;-80
2022/10/25 06:51:18;;;;;;;4.73;2.10;;;14.90;98.20;;;15.41;65.59;98960.00;4956216;28;124398;-78
2022/10/25 06:53:44;;;;;;;5.60;2.20;;;14.90;97.80;;;15.44;65.41;98958.53;4949218;28;124616;-78
2022/10/25 06:56:13;;;;;;;3.40;1.97;;;14.90;97.80;;;15.47;65.23;98952.25;4949106;28;114742;-78
2022/10/25 06:58:40;;;;;;;3.10;1.63;;;14.90;97.70;;;15.52;65.13;98967.97;4964049;28;114203;-79
2022/10/25 07:01:17;;;;;;;4.23;1.77;;;15.00;97.70;;;15.56;64.58;98977.28;4952084;28;124237;-79
2022/10/25 07:03:45;;;;;;;2.83;1.50;;;15.10;97.60;;;15.58;64.65;98970.22;4950337;28;122705;-78
2022/10/25 07:06:16;;;;;;;5.93;1.90;;;15.00;97.60;;;15.63;64.59;98974.72;4951158;28;114659;-78
2022/10/25 07:08:46;;;;;;;4.03;2.17;;;15.10;97.60;;;15.68;64.28;98975.38;4951760;28;114570;-80
2022/10/25 07:11:16;;;;;;;7.00;2.97;;;15.10;97.50;;;15.76;64.20;98972.84;4966287;28;123970;-82
2022/10/25 07:13:43;;;;;;;3.13;1.90;;;15.20;97.50;;;15.81;63.88;98976.22;4955300;28;124516;-80
2022/10/25 07:16:14;;;;;;;2.77;1.90;;;15.20;97.40;;;15.87;63.80;98982.41;4949392;28;113565;-78
2022/10/25 07:18:44;;;;;;;11.93;1.97;;;15.30;97.40;;;15.93;63.32;98980.22;4955827;28;114225;-80
2022/10/25 07:21:19;;;;;;;3.10;1.63;;;15.30;97.30;;;15.97;63.49;98981.16;4949499;28;124033;-81
2022/10/25 07:23:47;;;;;;;3.40;2.13;;;15.40;97.20;;;16.02;63.21;98978.16;4949335;28;124303;-78
2022/10/25 07:26:18;;;;;;;2.93;1.50;;;15.40;97.10;;;16.06;63.17;98981.88;4986806;28;113442;-78
2022/10/25 07:28:47;;;;;;;4.57;1.77;;;15.40;97.00;;;16.06;63.11;98984.66;4971565;28;113398;-81
2022/10/25 07:31:18;;;;;;;4.27;2.10;;;15.50;96.90;;;16.09;63.05;98983.97;4949116;28;124009;-78
2022/10/25 07:33:44;;;;;;;2.57;1.70;;;15.50;96.90;;;16.15;63.04;98992.91;4964641;28;123481;-79
2022/10/25 07:36:12;;;;;;;2.90;1.80;;;15.50;96.80;;;16.15;62.63;98981.78;4950366;28;116244;-81
2022/10/25 07:38:40;;;;;;;2.97;1.67;;;15.60;96.80;;;16.16;62.77;98995.38;4953651;28;114810;-80
2022/10/25 07:41:08;;;;;;;3.17;1.40;;;15.60;96.70;;;16.19;62.70;98989.09;4957672;28;124635;-79
2022/10/25 07:43:35;;;;;;;9.53;2.20;;;15.60;96.70;;;16.23;62.54;98987.28;4945372;28;124008;-79
2022/10/25 07:46:04;;;;;;;2.70;1.60;;;15.70;96.70;;;16.28;62.46;98992.63;4971836;28;114335;-79
2022/10/25 07:48:32;;;;;;;3.43;1.60;;;15.70;96.60;;;16.33;62.42;98983.19;4972061;28;113472;-83
2022/10/25 07:51:04;;;;;;;5.40;1.67;;;15.70;96.60;;;16.34;62.14;98982.88;4970323;28;123811;-80
2022/10/25 07:53:30;;;;;;;6.13;1.90;;;15.80;96.50;;;16.38;62.00;98996.91;4970967;28;123796;-77
2022/10/25 07:55:57;;;;;;;5.37;1.43;;;14.20;95.70;;;16.39;61.94;98998.56;4965962;28;114501;-77
2022/10/25 07:58:23;;;;;;;5.33;1.70;;;15.80;96.30;;;16.39;61.93;98997.72;4967566;28;113984;-79
2022/10/25 08:00:50;;;;;;;2.93;1.30;;;15.80;96.20;;;16.39;61.90;98992.16;4965720;28;123972;-78
2022/10/25 08:03:17;;;;;;;5.37;1.93;;;15.80;96.30;;;16.41;61.63;98999.00;4965827;28;123717;-77
2022/10/25 08:05:45;;;;;;;6.90;1.80;;;15.80;96.20;;;16.45;62.00;98993.56;4965532;28;113963;-79
2022/10/25 08:08:13;;;;;;;4.47;1.97;;;15.90;96.20;;;16.49;61.85;98991.72;4966469;28;113740;-77
2022/10/25 08:10:43;;;;;;;3.77;1.70;;;16.00;96.40;;;16.49;61.71;98992.50;4948131;28;123887;-78
2022/10/25 08:13:10;;;;;;;2.80;1.53;;;15.90;96.10;;;16.52;61.89;98985.44;4970686;28;123756;-76
2022/10/25 08:15:39;;;;;;;4.60;2.03;;;16.00;96.20;;;16.57;61.76;98988.00;4967821;28;114464;-78
2022/10/25 08:18:06;;;;;;;2.93;1.60;;;16.00;96.10;;;16.61;61.59;98993.72;4967690;28;114063;-78
2022/10/25 08:20:33;;;;;;;5.53;1.70;;;16.00;96.10;;;16.66;61.54;98979.53;4966464;28;124223;-78
2022/10/25 08:22:59;;;;;;;14.07;2.87;;;16.10;96.10;;;16.71;61.59;98982.91;4968029;28;124117;-78
2022/10/25 08:25:27;;;;;;;4.83;1.97;;;16.10;96.10;;;16.75;61.46;98986.59;4966594;28;115193;-77
2022/10/25 08:27:54;;;;;;;5.80;1.80;;;16.20;96.10;;;16.81;61.33;98987.22;4967709;28;115013;-78
2022/10/25 08:30:21;;;;;;;5.23;1.47;;;16.20;96.00;;;16.84;61.20;98983.72;4966852;28;123544;-78
2022/10/25 08:32:47;;;;;;;2.33;1.20;;;16.30;96.00;;;16.88;61.10;98987.44;4966031;28;123799;-78
2022/10/25 08:35:14;;;;;;;2.30;1.40;;;16.30;95.90;;;16.90;60.94;98990.72;4960172;28;114465;-78
2022/10/25 08:37:40;;;;;;;2.50;1.40;;;16.30;95.80;;;16.92;60.85;98982.78;4967921;28;114226;-78
2022/10/25 08:40:25;;;;;;;3.70;1.40;;;16.40;95.80;;;16.95;60.45;98986.84;4966946;28;123861;-78
2022/10/25 08:43:10;;;;;;;4.33;1.50;;;16.40;95.60;;;16.96;60.51;98978.13;4955540;28;123743;-78
2022/10/25 08:46:04;;;;;;;1.77;1.30;;;16.40;95.60;;;16.94;60.41;98979.66;4959224;28;114239;-79
2022/10/25 08:48:45;;;;;;;2.03;1.50;;;16.40;95.50;;;16.94;60.50;98985.22;4971419;28;113841;-82
2022/10/25 08:51:25;;;;;;;3.37;1.30;;;16.50;95.50;;;16.94;60.57;98976.88;4961374;28;124131;-78
2022/10/25 08:54:00;;;;;;;7.00;2.07;;;16.50;95.50;;;16.97;60.56;98987.31;4963885;28;124317;-78
2022/10/25 08:56:28;;;;;;;2.87;1.50;;;16.50;95.50;;;17.01;60.51;98985.47;4947293;28;114207;-77
2022/10/25 08:58:59;;;;;;;2.43;1.37;;;16.50;95.50;;;17.05;60.36;98980.00;4951301;28;114022;-81
2022/10/25 09:01:37;;;;;;;3.23;1.60;;;16.50;95.40;;;17.09;60.48;98980.94;4946973;28;123870;-78
2022/10/25 09:04:04;;;;;;;3.07;1.60;;;16.60;95.50;;;17.15;60.36;98982.31;4947958;28;124263;-78
2022/10/25 09:06:35;;;;;;;6.90;2.13;;;16.60;95.40;;;17.19;60.28;98981.25;4947078;28;114020;-79
2022/10/25 09:09:36;;;;;;;4.87;1.67;;;16.60;95.40;;;17.22;60.08;98980.53;4949189;28;114102;-79
2022/10/25 09:12:24;;;;;;;4.30;1.30;;;16.70;95.40;;;17.29;60.08;98990.31;4952409;28;123983;-79
2022/10/25 09:15:38;;;;;;;9.67;2.33;;;16.80;95.30;;;17.32;59.98;98995.19;4948766;28;123906;-80
2022/10/25 09:18:15;;;;;;;1.20;1.03;;;16.80;95.20;;;17.39;59.99;98993.41;4958530;28;115241;-78
2022/10/25 09:20:49;;;;;;;3.13;1.43;;;16.90;95.30;;;17.46;59.52;98998.38;4954198;28;114885;-78
2022/10/25 09:23:28;;;;;;;4.60;1.67;;;16.90;95.20;;;17.52;59.49;98994.19;4948951;28;124142;-80
2022/10/25 09:26:11;;;;;;;6.90;1.70;;;17.00;95.20;;;17.58;59.43;98992.78;4951335;28;123765;-80
2022/10/25 09:29:03;;;;;;;2.87;1.50;;;17.10;95.20;;;17.64;59.24;98996.13;4949233;28;113952;-78
2022/10/25 09:31:38;;;;;;;2.20;1.23;;;17.10;95.00;;;17.70;59.13;98993.91;4947599;28;114007;-80
2022/10/25 09:34:08;;;;;;;3.90;1.60;;;17.20;94.90;;;17.76;58.84;98992.47;4948574;28;124594;-79
2022/10/25 09:36:45;;;;;;;3.77;1.60;;;17.20;94.90;;;17.82;58.54;98985.50;4946881;28;123893;-81
2022/10/25 09:39:49;;;;;;;2.23;1.27;;;17.30;94.80;;;17.86;58.61;98983.59;4949239;28;115788;-80
2022/10/25 09:42:26;;;;;;;7.17;1.67;;;17.30;94.70;;;17.95;58.53;98989.06;4948492;28;113648;-78
2022/10/25 09:45:25;;;;;;;3.07;1.23;;;17.20;94.60;;;18.00;58.33;98984.03;4958075;28;124535;-78
2022/10/25 09:47:56;;;;;;;4.97;1.67;;;17.50;94.60;;;18.06;58.18;98995.75;4966505;28;124154;-78
2022/10/25 09:51:02;;;;;;;3.73;1.80;;;17.60;94.60;;;18.10;58.02;98989.06;4969334;28;114616;-78
2022/10/25 09:53:31;;;;;;;2.33;1.50;;;17.60;94.40;;;18.16;57.86;98986.84;4952601;28;113420;-77
2022/10/25 09:56:00;;;;;;;2.10;1.30;;;17.60;94.40;;;18.22;57.80;98987.38;4966479;28;124497;-78
2022/10/25 09:58:32;;;;;;;4.90;1.90;;;17.60;94.30;;;18.30;57.47;98990.00;4966311;28;123367;-77
2022/10/25 10:01:25;;;;;;;2.37;1.40;;;17.70;94.30;;;18.36;57.42;98990.56;4959710;28;115062;-77
2022/10/25 10:03:55;;;;;;;8.13;1.77;;;17.80;94.10;;;18.42;57.30;98985.50;4950410;28;112492;-77
2022/10/25 10:06:27;;;;;;;6.30;1.50;;;17.80;94.00;;;18.48;56.77;98986.84;4966100;28;124204;-77
2022/10/25 10:09:04;;;;;;;3.30;1.67;;;17.90;93.90;;;18.53;56.62;98987.38;4958049;28;123860;-77
2022/10/25 10:11:33;;;;;;;3.20;1.30;;;18.00;93.80;;;18.59;56.54;98984.31;4963994;28;115146;-79
2022/10/25 10:14:06;;;;;;;2.50;1.20;;;18.00;93.80;;;18.65;56.34;98989.31;4968646;28;115004;-77
2022/10/25 10:16:41;;;;;;;3.93;1.40;;;18.10;93.70;;;18.70;56.21;98985.41;4958111;28;124789;-78
2022/10/25 10:19:28;;;;;;;3.87;1.13;;;18.10;93.60;;;18.74;56.16;98994.69;4965393;28;124135;-77
2022/10/25 10:22:07;;;;;;;2.67;1.27;;;18.20;93.50;;;18.79;55.83;98994.47;4954872;28;114619;-78
2022/10/25 10:24:38;;;;;;;6.10;1.43;;;18.20;93.40;;;18.84;55.78;98980.19;4953292;28;113907;-77
2022/10/25 10:27:23;;;;;;;2.80;1.50;;;18.30;93.40;;;18.94;55.81;98978.81;4962131;28;124598;-78
2022/10/25 10:29:58;;;;;;;3.73;1.63;;;17.10;92.80;;;19.03;55.83;98981.44;4959560;28;124422;-79
2022/10/25 10:32:53;;;;;;;2.40;1.30;;;18.40;93.30;;;19.10;55.58;98981.56;4960521;28;113984;-77
2022/10/25 10:35:35;;;;;;;3.67;1.33;;;18.50;93.20;;;19.19;55.19;98973.78;4953687;28;114001;-78
2022/10/25 10:38:27;;;;;;;2.23;1.33;;;18.60;93.10;;;19.24;55.21;98976.31;4948541;28;124192;-77
2022/10/25 10:41:30;;;;;;;4.13;1.40;;;18.60;93.10;;;19.30;54.93;98972.03;4947529;28;123732;-78
2022/10/25 10:44:15;;;;;;;8.10;1.80;;;18.70;93.00;;;19.39;54.81;98955.00;4955147;28;114786;-78